Time;durP1;ratioP1;P1;durP2;ratioP2;P2;SDS_P1;SDS_P2;PMS_P1;PMS_P2;Temp;Humidity;BMP_temperature;BMP_pressure;BME280_temperature;BME280_humidity;BME280_pressure;Samples;Min_cycle;Max_cycle;Signal;HPM_P1;HPM_P2
2023/12/04 00:00:32;;;;;;;26.20;12.43;;;;;;;0.84;100.00;101122.75;5049658;28;20017;-74
2023/12/04 00:02:57;;;;;;;26.33;11.52;;;;;;;0.85;100.00;101117.41;5038916;28;20056;-73
2023/12/04 00:05:23;;;;;;;29.90;12.70;;;;;;;0.88;100.00;101105.88;5055537;28;20031;-75
2023/12/04 00:07:48;;;;;;;28.40;11.85;;;;;;;0.88;100.00;101113.81;5050441;28;20036;-73
2023/12/04 00:10:13;;;;;;;27.23;11.35;;;;;;;0.91;100.00;101103.13;5041645;28;20032;-73
2023/12/04 00:12:39;;;;;;;25.40;11.45;;;;;;;0.92;100.00;101107.50;5057707;28;20028;-74
2023/12/04 00:15:05;;;;;;;27.63;11.60;;;;;;;0.92;100.00;101093.41;5052854;28;20457;-74
2023/12/04 00:17:30;;;;;;;25.55;11.25;;;;;;;0.92;100.00;101090.75;5052402;28;20041;-73
2023/12/04 00:19:55;;;;;;;28.50;12.25;;;;;;;0.91;100.00;101095.19;5046920;28;20090;-74
2023/12/04 00:22:20;;;;;;;26.05;10.65;;;;;;;0.92;100.00;101096.91;5061211;28;20441;-73
2023/12/04 00:24:46;;;;;;;27.48;12.15;;;;;;;0.94;100.00;101089.81;5059383;28;20031;-74
2023/12/04 00:27:11;;;;;;;25.33;11.52;;;;;;;0.94;100.00;101094.22;5040230;28;20484;-73
2023/12/04 00:29:37;;;;;;;27.85;12.30;;;;;;;0.93;100.00;101088.06;5048455;28;20020;-73
2023/12/04 00:32:02;;;;;;;28.83;11.05;;;;;;;0.93;100.00;101081.91;5048410;28;20035;-73
2023/12/04 00:34:27;;;;;;;26.42;12.30;;;;;;;0.93;100.00;101085.41;5050819;28;20028;-73
2023/12/04 00:36:53;;;;;;;24.73;10.20;;;;;;;0.94;100.00;101084.50;5053598;28;20024;-73
2023/12/04 00:39:18;;;;;;;25.13;10.98;;;;;;;0.94;100.00;101079.22;5053286;28;20032;-74
2023/12/04 00:41:43;;;;;;;26.08;10.65;;;;;;;0.94;100.00;101078.34;5048558;28;20343;-73
2023/12/04 00:44:09;;;;;;;25.15;10.70;;;;;;;0.93;100.00;101077.47;5049768;28;20021;-73
2023/12/04 00:46:34;;;;;;;23.45;11.55;;;;;;;0.92;100.00;101074.88;5045832;28;20029;-73
2023/12/04 00:48:59;;;;;;;26.15;11.18;;;;;;;0.91;100.00;101071.38;5064535;28;20048;-73
2023/12/04 00:51:26;;;;;;;25.35;11.88;;;;;;;0.89;100.00;101065.25;5049061;28;20104;-73
2023/12/04 00:53:51;;;;;;;24.40;11.10;;;;;;;0.91;100.00;101063.44;5060682;28;20044;-73
2023/12/04 00:56:16;;;;;;;27.88;11.35;;;;;;;0.90;100.00;101060.84;5058261;28;20495;-73
2023/12/04 00:58:42;;;;;;;27.02;11.80;;;;;;;0.92;100.00;101053.72;5060932;28;20029;-74
2023/12/04 01:01:07;;;;;;;24.73;9.65;;;;;;;0.91;100.00;101055.50;5058764;28;20337;-74
2023/12/04 01:03:33;;;;;;;25.77;10.85;;;;;;;0.92;100.00;101046.63;5054917;28;20112;-73
2023/12/04 01:05:59;;;;;;;25.48;10.10;;;;;;;0.93;100.00;101050.16;5045207;28;20044;-74
2023/12/04 01:08:24;;;;;;;24.30;10.23;;;;;;;0.94;100.00;101041.28;5054479;28;20025;-73
2023/12/04 01:10:49;;;;;;;26.90;11.00;;;;;;;0.92;100.00;101043.97;5050749;28;20308;-72
2023/12/04 01:13:14;;;;;;;27.40;12.40;;;;;;;0.93;100.00;101045.72;5048024;28;20021;-72
2023/12/04 01:15:40;;;;;;;24.95;10.60;;;;;;;0.91;100.00;101034.34;5053724;28;20372;-71
2023/12/04 01:18:05;;;;;;;25.52;10.13;;;;;;;0.91;100.00;101044.03;5045071;28;20036;-72
2023/12/04 01:20:33;;;;;;;26.52;11.75;;;;;;;0.92;100.00;101037.81;5035311;28;20013;-72
2023/12/04 01:22:58;;;;;;;24.15;9.80;;;;;;;0.94;100.00;101034.22;5053301;28;20067;-72
2023/12/04 01:25:23;;;;;;;28.58;10.55;;;;;;;0.91;100.00;101020.22;5055888;28;20056;-71
2023/12/04 01:27:49;;;;;;;22.95;9.35;;;;;;;0.95;100.00;101022.75;5050894;28;20057;-72
2023/12/04 01:30:14;;;;;;;26.50;11.57;;;;;;;0.97;100.00;101018.25;5052727;28;20051;-72
2023/12/04 01:32:42;;;;;;;25.48;10.77;;;;;;;0.97;100.00;101020.03;5055150;28;20028;-72
2023/12/04 01:35:07;;;;;;;23.30;9.65;;;;;;;0.98;100.00;101014.72;5052758;28;20025;-72
2023/12/04 01:37:33;;;;;;;23.50;10.38;;;;;;;1.01;100.00;101017.25;5049886;28;20488;-72
2023/12/04 01:39:58;;;;;;;25.50;11.25;;;;;;;1.02;100.00;101018.97;5048680;28;20031;-72
2023/12/04 01:42:23;;;;;;;23.33;10.23;;;;;;;1.03;100.00;101015.41;5054464;28;20027;-72
2023/12/04 01:44:48;;;;;;;23.85;9.05;;;;;;;1.04;100.00;101017.16;5061473;28;20585;-72
2023/12/04 01:47:14;;;;;;;27.48;10.70;;;;;;;1.06;100.00;101003.88;5053599;28;20100;-72
2023/12/04 01:49:40;;;;;;;24.00;10.27;;;;;;;1.07;100.00;101004.72;5051467;28;20090;-72
2023/12/04 01:52:05;;;;;;;25.90;10.25;;;;;;;1.09;100.00;100997.63;5053131;28;20452;-72
2023/12/04 01:54:31;;;;;;;23.48;10.73;;;;;;;1.11;100.00;100998.44;5053683;28;20017;-72
2023/12/04 01:56:58;;;;;;;25.38;9.07;;;;;;;1.11;100.00;100998.44;5050685;28;20384;-72
2023/12/04 01:59:25;;;;;;;24.42;9.63;;;;;;;1.10;100.00;100999.34;5052815;28;20115;-72
2023/12/04 02:01:52;;;;;;;25.17;9.98;;;;;;;1.08;100.00;100990.59;5053090;28;20101;-72
2023/12/04 02:04:17;;;;;;;25.52;10.57;;;;;;;1.09;100.00;100982.59;5049619;28;20036;-72
2023/12/04 02:06:43;;;;;;;25.25;11.10;;;;;;;1.09;100.00;100981.75;5049445;28;20338;-72
2023/12/04 02:09:12;;;;;;;25.80;9.48;;;;;;;1.08;100.00;100980.00;5055247;28;20122;-72
2023/12/04 02:11:38;;;;;;;23.20;9.90;;;;;;;1.08;100.00;100980.00;5050687;28;20139;-72
2023/12/04 02:14:04;;;;;;;23.08;9.18;;;;;;;1.10;100.00;100975.50;5044009;28;20025;-72
2023/12/04 02:16:32;;;;;;;25.25;9.88;;;;;;;1.07;100.00;100965.91;5050227;28;20507;-72
2023/12/04 02:18:58;;;;;;;25.17;8.90;;;;;;;1.08;100.00;100969.41;5054413;28;20263;-72
2023/12/04 02:21:23;;;;;;;22.75;9.02;;;;;;;1.09;100.00;100965.88;5058489;28;20020;-74
2023/12/04 02:23:50;;;;;;;24.30;10.80;;;;;;;1.08;100.00;100969.41;5052717;28;20033;-73
2023/12/04 02:26:18;;;;;;;22.45;9.35;;;;;;;1.09;100.00;100965.88;5050766;28;20056;-74
2023/12/04 02:28:50;;;;;;;24.27;9.05;;;;;;;1.11;100.00;100966.66;5048756;28;20027;-73
2023/12/04 02:31:17;;;;;;;22.50;8.77;;;;;;;1.11;100.00;100956.94;5057771;28;20039;-73
2023/12/04 02:33:45;;;;;;;23.95;9.63;;;;;;;1.14;100.00;100958.63;5042779;28;20370;-73
2023/12/04 02:36:11;;;;;;;22.95;9.63;;;;;;;1.13;100.00;100956.88;5045349;28;20472;-74
2023/12/04 02:38:37;;;;;;;23.40;10.20;;;;;;;1.14;100.00;100948.91;5049868;28;20055;-74
2023/12/04 02:41:03;;;;;;;25.75;9.18;;;;;;;1.15;100.00;100955.06;5050524;28;20017;-73
2023/12/04 02:43:28;;;;;;;22.33;8.20;;;;;;;1.15;100.00;100945.34;5047328;28;20032;-73
2023/12/04 02:45:53;;;;;;;23.67;9.13;;;;;;;1.15;100.00;100934.75;5046663;28;20499;-73
2023/12/04 02:48:18;;;;;;;24.25;8.63;;;;;;;1.15;100.00;100934.75;5046234;28;20029;-74
2023/12/04 02:50:44;;;;;;;22.85;8.75;;;;;;;1.17;100.00;100932.03;5053792;28;20048;-74
2023/12/04 02:53:12;;;;;;;22.60;8.43;;;;;;;1.16;100.00;100931.19;5051313;28;20417;-74
2023/12/04 02:55:37;;;;;;;24.33;9.18;;;;;;;1.14;100.00;100926.84;5050911;28;20059;-74
2023/12/04 02:58:03;;;;;;;24.48;9.70;;;;;;;1.16;100.00;100925.03;5050819;28;20132;-73
2023/12/04 03:00:28;;;;;;;23.50;9.73;;;;;;;1.14;100.00;100922.44;5051392;28;20036;-74
2023/12/04 03:02:54;;;;;;;24.25;9.18;;;;;;;1.14;100.00;100921.56;5054544;28;20361;-73
2023/12/04 03:05:19;;;;;;;24.90;9.82;;;;;;;1.13;100.00;100917.19;5053137;28;20021;-73
2023/12/04 03:07:45;;;;;;;24.30;8.65;;;;;;;1.11;100.00;100911.06;5049652;28;20021;-73
2023/12/04 03:10:11;;;;;;;26.00;8.38;;;;;;;1.10;100.00;100909.34;5054735;28;20036;-74
2023/12/04 03:12:36;;;;;;;22.80;8.63;;;;;;;1.08;100.00;100903.25;5056661;28;20036;-74
2023/12/04 03:15:01;;;;;;;23.17;9.20;;;;;;;1.08;100.00;100896.16;5051264;28;20028;-73
2023/12/04 03:17:27;;;;;;;23.40;8.82;;;;;;;1.09;100.00;100899.69;5050558;28;20100;-74
2023/12/04 03:19:52;;;;;;;24.02;9.05;;;;;;;1.07;100.00;100888.28;5049811;28;20037;-72
2023/12/04 03:22:17;;;;;;;21.15;7.88;;;;;;;1.09;100.00;100886.44;5047574;28;20508;-74
2023/12/04 03:24:43;;;;;;;23.90;9.50;;;;;;;1.10;100.00;100880.22;5059464;28;20046;-74
2023/12/04 03:27:08;;;;;;;23.05;8.18;;;;;;;1.10;100.00;100877.56;5050343;28;20043;-74
2023/12/04 03:29:33;;;;;;;23.10;8.00;;;;;;;1.12;100.00;100870.47;5056311;28;20411;-74
2023/12/04 03:31:58;;;;;;;23.60;9.20;;;;;;;1.14;100.00;100872.16;5058311;28;20464;-71
2023/12/04 03:34:24;;;;;;;23.80;9.88;;;;;;;1.16;100.00;100866.81;5056348;28;20021;-70
2023/12/04 03:36:49;;;;;;;20.33;8.07;;;;;;;1.15;100.00;100865.06;5059760;28;20538;-71
2023/12/04 03:39:14;;;;;;;21.02;7.63;;;;;;;1.15;100.00;100860.63;5059049;28;20060;-71
2023/12/04 03:41:39;;;;;;;23.40;9.85;;;;;;;1.14;100.00;100850.09;5063285;28;20463;-70
2023/12/04 03:44:05;;;;;;;21.65;7.82;;;;;;;1.16;100.00;100850.94;5057734;28;20025;-70
2023/12/04 03:46:30;;;;;;;23.85;8.80;;;;;;;1.16;100.00;100849.13;5059762;28;20123;-71
2023/12/04 03:48:56;;;;;;;23.73;8.50;;;;;;;1.13;100.00;100845.69;5063389;28;20456;-71
2023/12/04 03:51:24;;;;;;;22.77;9.43;;;;;;;1.15;100.00;100839.44;5040397;28;20046;-71
2023/12/04 03:53:49;;;;;;;21.70;8.32;;;;;;;1.16;100.00;100842.97;5056380;28;20028;-70
2023/12/04 03:56:14;;;;;;;23.58;9.00;;;;;;;1.16;100.00;100835.03;5064886;28;20514;-71
2023/12/04 03:58:40;;;;;;;23.00;8.68;;;;;;;1.19;100.00;100834.94;5059371;28;20123;-72
2023/12/04 04:01:05;;;;;;;21.40;7.93;;;;;;;1.18;100.00;100819.97;5067888;28;20028;-70
2023/12/04 04:03:31;;;;;;;20.13;7.63;;;;;;;1.18;100.00;100828.75;5047779;28;20047;-71
2023/12/04 04:05:56;;;;;;;22.60;8.35;;;;;;;1.19;100.00;100825.19;5059462;28;20033;-71
2023/12/04 04:08:21;;;;;;;24.67;8.55;;;;;;;1.19;100.00;100819.03;5067099;28;20584;-73
2023/12/04 04:10:46;;;;;;;20.42;7.43;;;;;;;1.17;100.00;100815.56;5065919;28;20045;-71
2023/12/04 04:13:12;;;;;;;23.35;9.35;;;;;;;1.18;100.00;100814.66;5063084;28;20101;-71
2023/12/04 04:15:37;;;;;;;24.88;8.23;;;;;;;1.16;100.00;100803.28;5059948;28;20013;-73
2023/12/04 04:18:03;;;;;;;24.00;9.45;;;;;;;1.18;100.00;100806.72;5056669;28;20025;-71
2023/12/04 04:20:28;;;;;;;22.02;8.18;;;;;;;1.19;100.00;100803.16;5061824;28;20036;-71
2023/12/04 04:22:53;;;;;;;23.55;8.55;;;;;;;1.17;100.00;100810.28;5063820;28;20032;-71
2023/12/04 04:25:21;;;;;;;21.85;8.50;;;;;;;1.17;100.00;100799.69;5058162;28;20059;-71
2023/12/04 04:27:47;;;;;;;24.58;8.90;;;;;;;1.15;100.00;100801.53;5063451;28;20388;-71
2023/12/04 04:30:13;;;;;;;22.88;8.23;;;;;;;1.14;100.00;100790.09;5052978;28;20104;-71
2023/12/04 04:32:38;;;;;;;25.15;9.43;;;;;;;1.15;100.00;100786.50;5066093;28;20115;-72
2023/12/04 04:35:04;;;;;;;22.92;8.43;;;;;;;1.17;100.00;100791.75;5057385;28;20080;-71
2023/12/04 04:37:29;;;;;;;23.05;7.88;;;;;;;1.18;100.00;100777.59;5059454;28;20165;-71
2023/12/04 04:39:54;;;;;;;22.45;8.88;;;;;;;1.19;100.00;100781.97;5063603;28;20033;-72
2023/12/04 04:42:22;;;;;;;23.45;8.05;;;;;;;1.17;100.00;100778.50;5057967;28;20096;-72
2023/12/04 04:44:47;;;;;;;20.85;6.90;;;;;;;1.17;100.00;100778.50;5049069;28;20112;-72
2023/12/04 04:47:12;;;;;;;21.50;7.97;;;;;;;1.17;100.00;100778.50;5046509;28;20107;-72
2023/12/04 04:49:38;;;;;;;21.55;8.40;;;;;;;1.17;100.00;100782.03;5055073;28;20503;-73
2023/12/04 04:52:03;;;;;;;21.15;7.30;;;;;;;1.15;100.00;100780.34;5050026;28;20158;-72
2023/12/04 04:54:32;;;;;;;22.38;7.72;;;;;;;1.15;100.00;100777.72;5056763;28;20025;-73
2023/12/04 04:56:57;;;;;;;21.67;7.28;;;;;;;1.16;100.00;100775.00;5047226;28;20143;-73
2023/12/04 04:59:23;;;;;;;21.48;7.45;;;;;;;1.20;100.00;100786.34;5055640;28;20082;-72
2023/12/04 05:01:48;;;;;;;22.73;8.45;;;;;;;1.21;100.00;100786.28;5045861;28;20386;-73
2023/12/04 05:04:13;;;;;;;22.20;8.68;;;;;;;1.22;100.00;100781.88;5046656;28;20037;-72
2023/12/04 05:06:38;;;;;;;22.55;8.50;;;;;;;1.20;100.00;100779.28;5057375;28;20073;-72
2023/12/04 05:09:04;;;;;;;21.50;8.27;;;;;;;1.21;100.00;100766.91;5061390;28;20107;-72
2023/12/04 05:11:30;;;;;;;23.25;8.48;;;;;;;1.22;100.00;100777.44;5051140;28;20017;-72
2023/12/04 05:13:55;;;;;;;20.48;7.40;;;;;;;1.24;100.00;100769.44;5046587;28;20115;-73
2023/12/04 05:16:20;;;;;;;22.65;8.63;;;;;;;1.24;100.00;100772.06;5047095;28;20056;-72
2023/12/04 05:18:45;;;;;;;21.58;8.32;;;;;;;1.24;100.00;100763.28;5047737;28;20036;-72
2023/12/04 05:21:11;;;;;;;23.58;7.80;;;;;;;1.24;100.00;100766.78;5050415;28;20036;-72
2023/12/04 05:23:38;;;;;;;24.08;8.68;;;;;;;1.24;100.00;100752.69;5048244;28;20025;-72
2023/12/04 05:26:04;;;;;;;21.33;8.55;;;;;;;1.22;100.00;100747.47;5045246;28;20496;-72
2023/12/04 05:28:29;;;;;;;21.92;8.38;;;;;;;1.24;100.00;100737.66;5052416;28;20435;-73
2023/12/04 05:30:55;;;;;;;21.95;7.50;;;;;;;1.23;100.00;100733.31;5052844;28;20017;-72
2023/12/04 05:33:20;;;;;;;22.88;8.50;;;;;;;1.23;100.00;100728.03;5051992;28;20498;-73
2023/12/04 05:35:47;;;;;;;20.42;8.18;;;;;;;1.24;100.00;100726.22;5041372;28;20025;-72
2023/12/04 05:38:13;;;;;;;21.98;7.78;;;;;;;1.21;100.00;100727.19;5033779;28;20120;-72
2023/12/04 05:40:38;;;;;;;21.92;8.40;;;;;;;1.21;100.00;100727.19;5055922;28;20547;-72
2023/12/04 05:43:03;;;;;;;22.67;8.27;;;;;;;1.20;100.00;100725.44;5047410;28;20108;-72
2023/12/04 05:45:29;;;;;;;20.42;7.72;;;;;;;1.19;100.00;100729.91;5045373;28;20057;-72
2023/12/04 05:47:54;;;;;;;21.23;7.80;;;;;;;1.18;100.00;100727.31;5054502;28;20023;-72
2023/12/04 05:50:19;;;;;;;21.88;8.27;;;;;;;1.18;100.00;100733.44;5057658;28;20040;-70
2023/12/04 05:52:45;;;;;;;20.33;7.55;;;;;;;1.20;100.00;100730.75;5061044;28;20082;-71
2023/12/04 05:55:10;;;;;;;22.40;8.95;;;;;;;1.20;100.00;100721.03;5043640;28;20420;-72
2023/12/04 05:57:37;;;;;;;23.55;8.55;;;;;;;1.20;100.00;100709.56;5062403;28;20488;-71
2023/12/04 06:00:04;;;;;;;21.30;7.85;;;;;;;1.20;100.00;100718.41;5049615;28;20028;-71
2023/12/04 06:02:30;;;;;;;21.95;8.02;;;;;;;1.18;100.00;100717.56;5052746;28;20480;-71
2023/12/04 06:04:55;;;;;;;21.98;8.32;;;;;;;1.18;100.00;100709.63;5054894;28;20031;-71
2023/12/04 06:07:21;;;;;;;21.30;8.57;;;;;;;1.18;100.00;100706.97;5063042;28;20028;-71
2023/12/04 06:09:46;;;;;;;22.50;8.77;;;;;;;1.20;100.00;100702.50;5056362;28;20518;-71
2023/12/04 06:12:11;;;;;;;19.73;7.32;;;;;;;1.23;100.00;100701.53;5050527;28;20035;-71
2023/12/04 06:14:36;;;;;;;20.85;7.85;;;;;;;1.24;100.00;100691.81;5052402;28;20531;-71
2023/12/04 06:17:02;;;;;;;22.27;8.27;;;;;;;1.25;100.00;100683.81;5062870;28;20029;-71
2023/12/04 06:19:28;;;;;;;21.35;8.10;;;;;;;1.22;100.00;100671.53;5056291;28;20025;-71
2023/12/04 06:21:54;;;;;;;23.02;8.82;;;;;;;1.23;100.00;100667.13;5050691;28;20187;-71
2023/12/04 06:24:19;;;;;;;20.20;7.43;;;;;;;1.22;100.00;100665.41;5050058;28;20099;-70
2023/12/04 06:26:49;;;;;;;24.27;8.70;;;;;;;1.24;100.00;100670.63;5046593;28;20040;-70
2023/12/04 06:29:15;;;;;;;23.75;8.32;;;;;;;1.22;100.00;100660.09;5057450;28;20167;-70
2023/12/04 06:31:41;;;;;;;21.75;8.57;;;;;;;1.21;100.00;100666.31;5057322;28;20043;-71
2023/12/04 06:34:06;;;;;;;21.45;7.93;;;;;;;1.21;100.00;100653.91;5058893;28;20093;-71
2023/12/04 06:36:37;;;;;;;22.70;7.95;;;;;;;1.21;100.00;100651.28;5053446;28;20021;-71
2023/12/04 06:39:08;;;;;;;22.15;8.80;;;;;;;1.19;100.00;100644.34;5059696;28;20040;-71
2023/12/04 06:41:34;;;;;;;18.95;6.10;;;;;;;1.18;100.00;100635.50;5046956;28;20028;-71
2023/12/04 06:43:59;;;;;;;21.85;7.45;;;;;;;1.18;99.57;100632.00;5051712;28;20094;-71
2023/12/04 06:46:28;;;;;;;22.48;8.52;;;;;;;1.17;99.99;100647.03;5046291;28;20105;-71
2023/12/04 06:48:57;;;;;;;21.00;6.95;;;;;;;1.17;99.17;100640.88;5053036;28;20024;-71
2023/12/04 06:51:22;;;;;;;21.55;7.38;;;;;;;1.15;98.48;100646.22;5058769;28;20055;-71
2023/12/04 06:53:48;;;;;;;20.75;7.00;;;;;;;1.16;99.73;100649.75;5055164;28;20568;-71
2023/12/04 06:56:13;;;;;;;21.00;7.57;;;;;;;1.19;99.36;100660.22;5049172;28;20055;-71
2023/12/04 06:58:38;;;;;;;21.48;8.02;;;;;;;1.20;99.06;100646.03;5052413;28;20017;-70
2023/12/04 07:01:04;;;;;;;19.90;6.78;;;;;;;1.18;98.29;100646.09;5059975;28;20088;-72
2023/12/04 07:03:29;;;;;;;20.40;7.45;;;;;;;1.22;98.85;100644.22;5078298;28;20142;-72
2023/12/04 07:05:54;;;;;;;20.55;7.25;;;;;;;1.20;98.46;100640.75;5076719;28;20035;-72
2023/12/04 07:08:19;;;;;;;18.92;7.78;;;;;;;1.19;98.32;100628.44;5074743;28;20040;-72
2023/12/04 07:10:45;;;;;;;20.05;7.38;;;;;;;1.22;98.76;100630.97;5059571;28;20025;-71
2023/12/04 07:13:12;;;;;;;19.52;6.13;;;;;;;1.21;97.75;100631.88;5054727;28;20565;-70
2023/12/04 07:15:37;;;;;;;20.38;6.93;;;;;;;1.19;97.35;100634.59;5052183;28;20032;-71
2023/12/04 07:18:03;;;;;;;21.77;7.40;;;;;;;1.15;96.18;100625.03;5061379;28;20036;-71
2023/12/04 07:20:29;;;;;;;20.20;6.90;;;;;;;1.13;96.63;100632.19;5040923;28;20223;-71
2023/12/04 07:22:54;;;;;;;21.55;8.05;;;;;;;1.12;96.63;100634.91;5064750;28;20033;-72
2023/12/04 07:25:20;;;;;;;19.08;6.53;;;;;;;1.11;96.95;100630.50;5071238;28;20132;-72
2023/12/04 07:27:46;;;;;;;21.30;6.60;;;;;;;1.10;97.69;100645.53;5067266;28;20051;-72
2023/12/04 07:30:12;;;;;;;16.85;5.57;;;;;;;1.11;97.75;100636.66;5058573;28;20033;-72
2023/12/04 07:32:37;;;;;;;18.05;6.70;;;;;;;1.09;96.68;100632.38;5072576;28;20044;-72
2023/12/04 07:35:03;;;;;;;18.17;6.20;;;;;;;1.09;97.14;100627.94;5067402;28;20044;-72
2023/12/04 07:37:30;;;;;;;19.88;6.68;;;;;;;1.11;96.85;100635.81;5066223;28;20453;-72
2023/12/04 07:39:56;;;;;;;19.88;6.85;;;;;;;1.09;96.56;100638.50;5063853;28;20029;-72
2023/12/04 07:42:22;;;;;;;17.85;6.63;;;;;;;1.12;96.71;100635.75;5055680;28;20097;-72
2023/12/04 07:44:47;;;;;;;19.15;6.60;;;;;;;1.12;96.32;100634.91;5065052;28;20028;-72
2023/12/04 07:47:13;;;;;;;22.05;7.93;;;;;;;1.14;96.20;100630.38;5071749;28;20029;-72
2023/12/04 07:49:38;;;;;;;18.55;6.93;;;;;;;1.15;95.24;100632.13;5074839;28;20056;-72
2023/12/04 07:52:04;;;;;;;20.20;6.32;;;;;;;1.14;94.35;100625.97;5074795;28;20160;-72
2023/12/04 07:54:29;;;;;;;16.60;6.20;;;;;;;1.16;94.54;100617.97;5069699;28;20078;-72
2023/12/04 07:56:54;;;;;;;19.92;6.28;;;;;;;1.16;94.64;100610.03;5066776;28;20088;-72
2023/12/04 07:59:20;;;;;;;18.38;6.05;;;;;;;1.15;93.83;100611.81;5063799;28;20044;-72
2023/12/04 08:01:45;;;;;;;20.30;5.80;;;;;;;1.14;93.67;100607.47;5065892;28;20092;-72
2023/12/04 08:04:11;;;;;;;18.35;6.05;;;;;;;1.17;93.63;100609.97;5069324;28;20055;-72
2023/12/04 08:06:36;;;;;;;15.10;5.13;;;;;;;1.19;93.72;100607.28;5070833;28;20036;-72
2023/12/04 08:09:02;;;;;;;17.75;5.93;;;;;;;1.19;93.09;100588.75;5066143;28;20028;-72
2023/12/04 08:11:28;;;;;;;16.77;5.93;;;;;;;1.20;92.23;100601.03;5062634;28;20092;-72
2023/12/04 08:13:53;;;;;;;17.98;5.50;;;;;;;1.22;92.50;100594.78;5076483;28;20029;-72
2023/12/04 08:16:21;;;;;;;18.13;5.97;;;;;;;1.20;91.66;100601.03;5064439;28;20047;-72
2023/12/04 08:18:46;;;;;;;18.90;6.15;;;;;;;1.21;91.08;100605.41;5066899;28;20033;-72
2023/12/04 08:21:12;;;;;;;17.10;5.70;;;;;;;1.22;91.55;100599.22;5058935;28;20142;-72
2023/12/04 08:23:38;;;;;;;15.13;5.80;;;;;;;1.23;91.23;100598.31;5062333;28;20025;-72
2023/12/04 08:26:04;;;;;;;18.35;6.78;;;;;;;1.24;91.05;100594.72;5066863;28;20241;-72
2023/12/04 08:28:29;;;;;;;19.15;6.43;;;;;;;1.25;91.61;100587.66;5070751;28;20022;-72
2023/12/04 08:30:54;;;;;;;16.23;6.47;;;;;;;1.24;90.85;100583.25;5072282;28;20126;-72
2023/12/04 08:33:20;;;;;;;19.67;6.82;;;;;;;1.26;91.40;100587.59;5073382;28;20035;-72
2023/12/04 08:35:45;;;;;;;18.33;5.85;;;;;;;1.25;91.54;100579.72;5073447;28;20024;-72
2023/12/04 08:38:11;;;;;;;17.42;6.63;;;;;;;1.26;91.51;100568.16;5077118;28;20040;-72
2023/12/04 08:40:36;;;;;;;20.45;5.88;;;;;;;1.27;90.16;100577.84;5070499;28;20025;-72
2023/12/04 08:43:03;;;;;;;17.70;6.18;;;;;;;1.30;90.27;100564.50;5065119;28;20029;-72
2023/12/04 08:45:29;;;;;;;19.35;6.82;;;;;;;1.30;90.06;100564.50;5063310;28;20157;-72
2023/12/04 08:47:54;;;;;;;19.38;6.50;;;;;;;1.29;90.10;100565.41;5070394;28;20024;-72
2023/12/04 08:50:19;;;;;;;20.38;5.53;;;;;;;1.30;89.74;100561.84;5070382;28;20040;-72
2023/12/04 08:52:45;;;;;;;16.45;5.78;;;;;;;1.29;90.16;100545.09;5073641;28;22262;-72
2023/12/04 08:55:10;;;;;;;20.60;6.68;;;;;;;1.30;89.92;100549.44;5070812;28;20025;-72
2023/12/04 08:57:35;;;;;;;19.55;6.28;;;;;;;1.30;89.34;100541.50;5071715;28;20326;-73
2023/12/04 09:00:03;;;;;;;16.80;6.00;;;;;;;1.33;89.16;100545.84;5063636;28;20039;-73
2023/12/04 09:02:28;;;;;;;23.27;6.50;;;;;;;1.34;89.31;100535.19;5062896;28;20033;-72
2023/12/04 09:04:54;;;;;;;19.73;6.38;;;;;;;1.35;89.06;100534.25;5071902;28;20099;-72
2023/12/04 09:07:19;;;;;;;17.85;5.78;;;;;;;1.38;89.50;100543.88;5064291;28;20049;-72
2023/12/04 09:09:46;;;;;;;17.25;5.78;;;;;;;1.37;88.83;100537.69;5074303;28;20028;-72
2023/12/04 09:12:11;;;;;;;15.23;4.90;;;;;;;1.39;88.63;100541.16;5074985;28;20024;-73
2023/12/04 09:14:37;;;;;;;18.27;6.55;;;;;;;1.41;88.71;100535.81;5071252;28;20512;-72
2023/12/04 09:17:03;;;;;;;18.50;5.60;;;;;;;1.44;88.10;100540.13;5076183;28;20017;-72
2023/12/04 09:19:29;;;;;;;19.70;6.22;;;;;;;1.46;88.84;100535.63;5078937;28;20029;-72
2023/12/04 09:21:55;;;;;;;19.40;5.85;;;;;;;1.45;88.50;100532.13;5064229;28;20055;-72
2023/12/04 09:24:20;;;;;;;20.00;6.00;;;;;;;1.48;88.97;100528.44;5072775;28;20021;-72
2023/12/04 09:26:45;;;;;;;20.23;6.45;;;;;;;1.50;88.63;100524.81;5068737;28;20025;-73
2023/12/04 09:29:12;;;;;;;16.80;5.82;;;;;;;1.52;89.42;100530.94;5066335;28;20043;-73
2023/12/04 09:31:37;;;;;;;17.60;6.10;;;;;;;1.51;88.81;100523.91;5069989;28;20025;-72
2023/12/04 09:34:03;;;;;;;18.83;5.57;;;;;;;1.55;89.05;100532.56;5064158;28;20029;-72
2023/12/04 09:36:29;;;;;;;17.63;5.30;;;;;;;1.55;88.96;100524.63;5066744;28;20039;-73
2023/12/04 09:38:54;;;;;;;17.77;5.50;;;;;;;1.57;88.12;100541.34;5069630;28;20068;-73
2023/12/04 09:41:21;;;;;;;19.27;6.38;;;;;;;1.59;89.40;100528.88;5071010;28;20021;-73
2023/12/04 09:43:46;;;;;;;18.05;6.25;;;;;;;1.64;88.96;100529.56;5065163;28;20021;-72
2023/12/04 09:46:12;;;;;;;20.02;6.05;;;;;;;1.67;88.74;100534.75;5066593;28;20113;-72
2023/12/04 09:48:38;;;;;;;20.20;6.68;;;;;;;1.68;86.94;100531.16;5065155;28;20369;-72
2023/12/04 09:51:04;;;;;;;16.42;6.03;;;;;;;1.69;87.03;100530.22;5058520;28;20037;-72
2023/12/04 09:53:30;;;;;;;19.08;6.18;;;;;;;1.71;87.29;100533.69;5064446;28;20033;-73
2023/12/04 09:55:59;;;;;;;16.55;5.75;;;;;;;1.73;87.32;100528.31;5068804;28;20536;-72
2023/12/04 09:58:26;;;;;;;16.95;5.88;;;;;;;1.74;86.93;100520.31;5069097;28;20025;-72
2023/12/04 10:00:54;;;;;;;20.40;7.75;;;;;;;1.74;87.98;100524.72;5070537;28;20043;-72
2023/12/04 10:03:20;;;;;;;18.40;6.07;;;;;;;1.74;87.41;100520.31;5069699;28;20031;-72
2023/12/04 10:05:45;;;;;;;16.90;5.47;;;;;;;1.75;87.08;100516.72;5069262;28;20516;-72
2023/12/04 10:08:11;;;;;;;17.92;5.85;;;;;;;1.80;88.71;100518.31;5065975;28;20037;-72
2023/12/04 10:10:36;;;;;;;19.92;6.35;;;;;;;1.79;87.45;100511.28;5073790;28;20044;-72
2023/12/04 10:13:03;;;;;;;16.98;6.65;;;;;;;1.77;87.21;100510.50;5066038;28;20036;-72
2023/12/04 10:15:28;;;;;;;17.55;5.78;;;;;;;1.77;87.55;100503.41;5067436;28;20032;-72
2023/12/04 10:17:54;;;;;;;19.85;6.13;;;;;;;1.75;87.59;100511.41;5069661;28;20022;-72
2023/12/04 10:20:21;;;;;;;19.83;6.53;;;;;;;1.75;87.80;100503.47;5070247;28;20092;-72
2023/12/04 10:22:53;;;;;;;17.33;5.60;;;;;;;1.78;87.26;100493.69;5066838;28;20039;-72
2023/12/04 10:25:18;;;;;;;19.42;6.00;;;;;;;1.80;88.27;100486.53;5073037;28;20039;-72
2023/12/04 10:27:45;;;;;;;20.15;7.35;;;;;;;1.82;87.54;100484.69;5071623;28;20028;-72
2023/12/04 10:30:22;;;;;;;17.10;6.72;;;;;;;1.86;88.47;100470.34;5071112;28;20031;-72
2023/12/04 10:32:48;;;;;;;20.08;5.88;;;;;;;1.88;88.44;100468.50;5072260;28;20098;-72
2023/12/04 10:35:14;;;;;;;20.90;6.97;;;;;;;1.88;87.19;100457.91;5069440;28;20037;-72
2023/12/04 10:37:42;;;;;;;19.65;7.15;;;;;;;1.90;87.27;100454.28;5068513;28;20033;-72
2023/12/04 10:40:09;;;;;;;19.42;6.95;;;;;;;1.94;88.24;100452.34;5067106;28;20020;-72
2023/12/04 10:42:34;;;;;;;20.77;6.55;;;;;;;1.96;86.78;100449.63;5057797;28;20029;-73
2023/12/04 10:45:00;;;;;;;20.13;7.57;;;;;;;1.98;86.24;100447.78;5053395;28;20036;-72
2023/12/04 10:47:28;;;;;;;20.58;7.40;;;;;;;2.04;87.54;100442.22;5047704;28;20033;-73
2023/12/04 10:49:53;;;;;;;19.45;6.93;;;;;;;2.05;87.39;100443.91;5048888;28;20037;-72
2023/12/04 10:52:21;;;;;;;20.05;8.25;;;;;;;2.05;86.61;100423.59;5046110;28;20033;-75
2023/12/04 10:54:47;;;;;;;19.10;7.65;;;;;;;2.08;87.00;100420.78;5052177;28;20035;-75
2023/12/04 10:57:19;;;;;;;21.38;7.82;;;;;;;2.12;88.98;100418.84;5049645;28;20140;-74
2023/12/04 10:59:45;;;;;;;22.83;8.95;;;;;;;2.15;87.58;100413.41;5052386;28;20067;-75
2023/12/04 11:02:14;;;;;;;21.02;8.27;;;;;;;2.18;87.17;100421.25;5052062;28;20057;-73
2023/12/04 11:04:41;;;;;;;20.95;7.75;;;;;;;2.21;87.65;100409.63;5051046;28;20120;-72
2023/12/04 11:07:08;;;;;;;22.67;8.50;;;;;;;2.24;87.59;100406.81;5053613;28;20033;-72
2023/12/04 11:09:35;;;;;;;20.17;7.28;;;;;;;2.27;89.02;100401.41;5043041;28;20036;-72
2023/12/04 11:12:06;;;;;;;22.13;7.80;;;;;;;2.30;88.65;100401.25;5056518;28;20111;-73